CheckWX is a tool to help pilots better visualize weather data.  It is not intended as a substitute for an official pre-flight weather briefing.

12:04:21 UTC

7W4 METAR
Lake Anna Airport
Bumpass, Virginia, USA
Current

9 mins ago

K7W4 251155Z AUTO 30004KT 10SM BKN120 07/03 A3001 RMK AO1 T00670032 10142 20061
Observed
Mar-25 @ 11:55 UTC
Wind
  • 300° at 4 KTS
Visibility
10 SM
Flight Rules
VFR
Cloud Levels
  • Broken at 12,000' AGL
Temperature
C / 45°F
Dewpoint
C / 37°F
Humidity
76%
Altimeter
30.01" Hg
Pressure
1016.22 hPa
Previous

29 mins ago

K7W4 251135Z AUTO 00000KT 10SM SCT120 06/03 A3001 RMK AO1 T00630028
Observed
Mar-25 @ 11:35 UTC
Visibility
10 SM
Flight Rules
VFR
Cloud Levels
  • Scattered at 12,000' AGL
Temperature
C / 43°F
Dewpoint
C / 37°F
Humidity
81%
Altimeter
30.01" Hg
Pressure
1016.22 hPa
Previous

49 mins ago

K7W4 251115Z AUTO 00000KT 10SM CLR 06/03 A3001 RMK AO1 T00630027
Observed
Mar-25 @ 11:15 UTC
Visibility
10 SM
Flight Rules
VFR
Cloud Levels
  • Clear skies
Temperature
C / 43°F
Dewpoint
C / 37°F
Humidity
81%
Altimeter
30.01" Hg
Pressure
1016.22 hPa